Time;durP1;ratioP1;P1;durP2;ratioP2;P2;SDS_P1;SDS_P2;PMS_P1;PMS_P2;Temp;Humidity;BMP_temperature;BMP_pressure;BME280_temperature;BME280_humidity;BME280_pressure;Samples;Min_cycle;Max_cycle;Signal;HPM_P1;HPM_P2
2023/02/15 00:00:32;;;;;;;30.50;11.85;;;;;;;;;;4985441;28;20147;-69
2023/02/15 00:02:59;;;;;;;30.58;12.73;;;;;;;;;;4969007;28;20060;-75
2023/02/15 00:05:25;;;;;;;26.58;12.25;;;;;;;;;;4966504;28;20062;-71
2023/02/15 00:07:52;;;;;;;28.17;11.70;;;;;;;;;;4942741;28;20062;-75
2023/02/15 00:10:18;;;;;;;34.92;13.25;;;;;;;;;;4959047;28;20053;-72
2023/02/15 00:12:45;;;;;;;29.65;12.02;;;;;;;;;;4974372;28;20065;-71
2023/02/15 00:15:14;;;;;;;27.92;12.15;;;;;;;;;;4944417;28;20051;-76
2023/02/15 00:17:44;;;;;;;25.67;11.80;;;;;;;;;;4920647;28;20060;-77
2023/02/15 00:20:12;;;;;;;27.38;11.88;;;;;;;;;;4958084;28;20062;-78
2023/02/15 00:22:39;;;;;;;27.27;12.07;;;;;;;;;;4957443;28;20046;-81
2023/02/15 00:25:05;;;;;;;26.75;12.20;;;;;;;;;;4976372;28;20065;-67
2023/02/15 00:27:33;;;;;;;27.05;12.25;;;;;;;;;;4967126;28;20054;-77
2023/02/15 00:30:00;;;;;;;27.07;11.50;;;;;;;;;;4958645;28;20062;-66
2023/02/15 00:32:26;;;;;;;26.15;12.25;;;;;;;;;;4927887;28;20142;-73
2023/02/15 00:34:55;;;;;;;28.70;12.80;;;;;;;;;;4936862;28;20220;-74
2023/02/15 00:37:21;;;;;;;28.13;11.07;;;;;;;;;;4977284;28;20051;-71
2023/02/15 00:39:50;;;;;;;27.65;12.10;;;;;;;;;;4965731;28;20402;-75
2023/02/15 00:42:18;;;;;;;24.65;11.73;;;;;;;;;;4955246;28;20108;-70
2023/02/15 00:44:47;;;;;;;29.05;12.65;;;;;;;;;;4916446;28;20073;-74
2023/02/15 00:47:13;;;;;;;29.92;12.85;;;;;;;;;;4971818;28;20061;-76
2023/02/15 00:49:40;;;;;;;27.33;12.40;;;;;;;;;;4937837;28;20516;-71
2023/02/15 00:52:08;;;;;;;30.63;12.43;;;;;;;;;;4965410;28;20051;-77
2023/02/15 00:54:35;;;;;;;25.67;12.00;;;;;;;;;;4946637;28;20061;-77
2023/02/15 00:57:02;;;;;;;32.42;12.50;;;;;;;;;;4963522;28;20086;-78
2023/02/15 00:59:28;;;;;;;27.67;13.13;;;;;;;;;;4914930;28;20050;-74
2023/02/15 01:01:55;;;;;;;26.00;12.00;;;;;;;;;;4946042;28;20074;-77
2023/02/15 01:04:21;;;;;;;29.38;12.40;;;;;;;;;;4926923;28;20050;-76
2023/02/15 01:06:48;;;;;;;28.85;12.27;;;;;;;;;;4935087;28;20141;-76
2023/02/15 01:09:18;;;;;;;29.83;12.25;;;;;;;;;;4945373;28;20050;-76
2023/02/15 01:11:46;;;;;;;25.58;11.40;;;;;;;;;;4959769;28;20060;-73
2023/02/15 01:14:13;;;;;;;27.63;12.10;;;;;;;;;;4931096;28;20186;-71
2023/02/15 01:16:39;;;;;;;25.58;11.93;;;;;;;;;;4932902;28;20050;-72
2023/02/15 01:19:08;;;;;;;28.50;11.68;;;;;;;;;;4948609;28;20117;-65
2023/02/15 01:21:35;;;;;;;25.42;11.82;;;;;;;;;;4973819;28;20046;-72
2023/02/15 01:24:02;;;;;;;29.95;12.18;;;;;;;;;;4973312;28;20050;-72
2023/02/15 01:26:30;;;;;;;26.25;12.23;;;;;;;;;;4954426;28;20065;-69
2023/02/15 01:28:58;;;;;;;29.57;12.70;;;;;;;;;;4945816;28;20062;-66
2023/02/15 01:31:26;;;;;;;25.92;11.32;;;;;;;;;;4953648;28;20293;-75
2023/02/15 01:33:53;;;;;;;25.35;10.77;;;;;;;;;;4933026;28;20137;-71
2023/02/15 01:36:19;;;;;;;26.77;12.10;;;;;;;;;;4922522;28;20058;-77
2023/02/15 01:38:46;;;;;;;24.08;11.00;;;;;;;;;;4956476;28;20310;-76
2023/02/15 01:41:22;;;;;;;24.65;11.45;;;;;;;;;;4956289;28;20049;-73
2023/02/15 01:43:51;;;;;;;27.90;11.02;;;;;;;;;;4979208;28;20117;-69
2023/02/15 01:46:19;;;;;;;26.17;11.40;;;;;;;;;;4962879;28;20060;-67
2023/02/15 01:48:47;;;;;;;29.80;11.57;;;;;;;;;;4941167;28;20053;-79
2023/02/15 01:51:18;;;;;;;25.80;11.38;;;;;;;;;;4956697;28;20054;-71
2023/02/15 01:53:48;;;;;;;27.40;11.55;;;;;;;;;;4967931;28;20082;-80
2023/02/15 01:56:26;;;;;;;24.60;10.75;;;;;;;;;;4933668;28;20046;-71
2023/02/15 01:59:05;;;;;;;27.48;11.73;;;;;;;;;;4874463;28;20051;-69
2023/02/15 02:01:32;;;;;;;26.38;11.13;;;;;;;;;;4899384;28;20069;-77
2023/02/15 02:04:01;;;;;;;24.92;10.95;;;;;;;;;;4935166;28;21177;-76
2023/02/15 02:06:28;;;;;;;26.23;11.10;;;;;;;;;;4916762;28;20062;-76
2023/02/15 02:08:55;;;;;;;26.20;11.27;;;;;;;;;;4926558;28;20069;-77
2023/02/15 02:11:22;;;;;;;25.17;11.35;;;;;;;;;;4949597;28;20670;-73
2023/02/15 02:13:51;;;;;;;26.02;11.25;;;;;;;;;;4940442;28;20064;-76
2023/02/15 02:16:22;;;;;;;24.13;10.82;;;;;;;;;;4955888;28;20082;-82
2023/02/15 02:18:55;;;;;;;24.70;11.23;;;;;;;;;;4898615;28;20058;-76
2023/02/15 02:24:17;;;;;;;27.23;10.93;;;;;;;;;;4911955;28;20065;-77
2023/02/15 02:26:55;;;;;;;26.92;11.50;;;;;;;;;;4929856;28;20066;-81
2023/02/15 02:29:34;;;;;;;24.63;10.87;;;;;;;;;;4884202;28;20056;-81
2023/02/15 02:34:35;;;;;;;24.33;10.38;;;;;;;;;;4797566;29;20127;-78
2023/02/15 02:37:07;;;;;;;29.38;10.80;;;;;;;;;;4890110;28;20070;-76
2023/02/15 02:39:38;;;;;;;24.77;10.05;;;;;;;;;;4971238;28;21761;-70
2023/02/15 02:42:07;;;;;;;24.88;9.88;;;;;;;;;;4971610;28;20055;-86
2023/02/15 02:44:42;;;;;;;27.27;10.27;;;;;;;;;;4982024;28;20058;-76
2023/02/15 02:47:11;;;;;;;23.50;10.48;;;;;;;;;;4982478;28;20104;-76
2023/02/15 02:49:37;;;;;;;;;;;;;;;;;;4985717;28;20062;-74
2023/02/15 02:52:28;;;;;;;21.75;9.57;;;;;;;;;;4966995;28;19943;-70
2023/02/15 02:54:59;;;;;;;20.55;9.93;;;;;;;;;;4966798;28;20056;-81
2023/02/15 02:57:27;;;;;;;29.10;10.68;;;;;;;;;;4983785;28;20055;-75
2023/02/15 02:59:55;;;;;;;23.05;9.95;;;;;;;;;;4976026;28;20054;-77
2023/02/15 03:02:22;;;;;;;29.57;10.67;;;;;;;;;;4964026;28;20064;-74
2023/02/15 03:04:57;;;;;;;25.17;10.47;;;;;;;;;;4916122;28;20137;-77
2023/02/15 03:07:24;;;;;;;24.83;9.75;;;;;;;;;;4981970;28;20054;-75
2023/02/15 03:09:52;;;;;;;22.92;10.55;;;;;;;;;;4971064;28;20191;-84
2023/02/15 03:12:23;;;;;;;21.73;9.68;;;;;;;;;;4952858;28;20055;-86
2023/02/15 03:14:52;;;;;;;23.27;10.43;;;;;;;;;;4863653;28;20089;-81
2023/02/15 03:17:18;;;;;;;;;;;;;;;;;;4954174;28;20058;-75
2023/02/15 03:19:45;;;;;;;22.45;9.57;;;;;;;;;;4948511;28;19929;-75
2023/02/15 03:22:15;;;;;;;21.52;9.45;;;;;;;;;;4956269;28;20076;-78
2023/02/15 03:24:43;;;;;;;24.17;9.70;;;;;;;;;;4942278;28;20057;-81
2023/02/15 03:27:12;;;;;;;23.38;9.65;;;;;;;;;;4990519;28;20420;-78
2023/02/15 03:29:41;;;;;;;23.30;10.13;;;;;;;;;;4999364;28;20053;-78
2023/02/15 03:32:10;;;;;;;20.83;9.27;;;;;;;;;;4998933;28;20543;-72
2023/02/15 03:34:39;;;;;;;24.75;9.75;;;;;;;;;;4986196;28;20168;-73
2023/02/15 03:37:11;;;;;;;21.98;9.85;;;;;;;;;;4998409;28;20060;-67
2023/02/15 03:39:41;;;;;;;24.42;10.35;;;;;;;;;;5001180;28;20057;-82
2023/02/15 03:42:11;;;;;;;24.10;10.10;;;;;;;;;;4974543;28;20053;-82
2023/02/15 03:44:42;;;;;;;22.02;9.73;;;;;;;;;;4966994;28;20060;-74
2023/02/15 03:47:12;;;;;;;22.85;9.55;;;;;;;;;;4991836;28;20054;-72
2023/02/15 03:49:43;;;;;;;25.45;9.55;;;;;;;;;;4950744;28;20054;-82
2023/02/15 03:52:09;;;;;;;19.52;9.48;;;;;;;;;;4964698;28;20061;-76
2023/02/15 03:54:50;;;;;;;23.23;9.25;;;;;;;;;;4885441;28;20057;-80
2023/02/15 04:02:53;;;;;;;21.33;9.63;;;;;;;;;;4922202;28;20054;-75
2023/02/15 04:05:26;;;;;;;21.63;8.90;;;;;;;;;;4941839;28;20057;-71
2023/02/15 04:07:53;;;;;;;21.50;9.20;;;;;;;;;;4940996;28;20070;-69
2023/02/15 04:13:03;;;;;;;20.30;9.02;;;;;;;;;;4945516;28;20057;-81
2023/02/15 04:18:15;;;;;;;23.67;9.65;;;;;;;;;;4969476;28;20050;-82
2023/02/15 04:26:12;;;;;;;25.60;9.95;;;;;;;;;;4992910;28;20050;-82
2023/02/15 04:28:38;;;;;;;22.95;9.75;;;;;;;;;;4991860;28;20148;-75
2023/02/15 04:31:05;;;;;;;24.42;9.30;;;;;;;;;;4937433;28;20087;-70
2023/02/15 04:33:35;;;;;;;26.23;9.65;;;;;;;;;;4966286;28;20074;-76
2023/02/15 04:36:02;;;;;;;23.23;10.18;;;;;;;;;;4944975;28;21936;-78
2023/02/15 04:38:29;;;;;;;24.95;9.07;;;;;;;;;;4944701;28;20137;-74
2023/02/15 04:40:57;;;;;;;21.48;8.93;;;;;;;;;;4875751;28;20104;-78
2023/02/15 04:48:14;;;;;;;25.05;9.55;;;;;;;;;;4905629;28;20073;-73
2023/02/15 04:50:42;;;;;;;23.17;9.27;;;;;;;;;;4980177;28;20085;-78
2023/02/15 04:53:09;;;;;;;20.92;8.27;;;;;;;;;;4968468;28;20073;-82
2023/02/15 04:55:36;;;;;;;20.80;8.35;;;;;;;;;;4968888;28;20097;-72
2023/02/15 04:58:03;;;;;;;22.77;9.18;;;;;;;;;;4961848;28;20063;-74
2023/02/15 05:00:29;;;;;;;23.73;9.68;;;;;;;;;;4961273;28;20058;-79
2023/02/15 05:02:56;;;;;;;20.52;8.80;;;;;;;;;;4978299;28;20141;-71
2023/02/15 05:05:22;;;;;;;25.63;9.95;;;;;;;;;;4894346;28;20063;-72
2023/02/15 05:07:50;;;;;;;22.88;9.40;;;;;;;;;;4944530;28;20065;-75
2023/02/15 05:10:17;;;;;;;20.60;9.32;;;;;;;;;;4942632;28;20058;-76
2023/02/15 05:12:44;;;;;;;20.60;9.05;;;;;;;;;;4931847;28;20054;-78
2023/02/15 05:15:10;;;;;;;21.10;8.90;;;;;;;;;;4966440;28;20128;-79
2023/02/15 05:17:37;;;;;;;24.10;8.75;;;;;;;;;;4995159;28;20071;-75
2023/02/15 05:20:05;;;;;;;25.00;9.93;;;;;;;;;;4979078;28;20179;-76
2023/02/15 05:22:31;;;;;;;20.63;8.35;;;;;;;;;;4995952;28;20182;-70
2023/02/15 05:30:28;;;;;;;18.48;8.05;;;;;;;;;;4889134;29;20250;-81
2023/02/15 05:32:55;;;;;;;22.05;9.05;;;;;;;;;;4872695;29;20063;-75
2023/02/15 05:35:21;;;;;;;21.35;9.00;;;;;;;;;;4878370;29;20236;-71
2023/02/15 05:37:48;;;;;;;23.40;9.27;;;;;;;;;;4890361;29;20059;-84
2023/02/15 05:40:16;;;;;;;17.90;8.02;;;;;;;;;;4921520;28;20149;-76
2023/02/15 05:42:46;;;;;;;19.85;8.80;;;;;;;;;;4920729;28;20050;-84
2023/02/15 05:45:12;;;;;;;20.63;9.00;;;;;;;;;;4919369;28;20060;-79
2023/02/15 05:47:42;;;;;;;20.15;8.90;;;;;;;;;;4946307;28;20069;-82
2023/02/15 05:50:11;;;;;;;21.05;8.65;;;;;;;;;;4909326;28;20059;-79
2023/02/15 05:52:37;;;;;;;23.48;9.43;;;;;;;;;;4939016;28;20069;-79
2023/02/15 05:55:08;;;;;;;21.65;9.57;;;;;;;;;;4938734;28;20141;-79
2023/02/15 05:57:42;;;;;;;26.05;9.65;;;;;;;;;;4955438;28;20112;-69
2023/02/15 06:00:13;;;;;;;20.98;8.98;;;;;;;;;;4904046;28;20062;-81
2023/02/15 06:02:40;;;;;;;21.65;8.23;;;;;;;;;;4920871;28;20066;-83
2023/02/15 06:05:09;;;;;;;26.58;9.20;;;;;;;;;;4873420;28;20142;-76
2023/02/15 06:07:36;;;;;;;19.77;8.85;;;;;;;;;;4957728;28;20064;-79
2023/02/15 06:10:05;;;;;;;20.30;9.45;;;;;;;;;;4928300;28;20979;-80
2023/02/15 06:12:32;;;;;;;21.27;9.20;;;;;;;;;;4948954;28;20066;-77
2023/02/15 06:15:00;;;;;;;25.02;9.65;;;;;;;;;;4938603;28;20061;-74
2023/02/15 06:17:26;;;;;;;22.15;8.88;;;;;;;;;;4935456;28;20062;-78
2023/02/15 06:19:53;;;;;;;23.77;8.98;;;;;;;;;;4931694;28;20055;-72
2023/02/15 06:22:20;;;;;;;24.42;9.98;;;;;;;;;;4950270;28;20198;-79
2023/02/15 06:24:46;;;;;;;22.45;9.32;;;;;;;;;;4974164;28;20053;-79
2023/02/15 06:27:13;;;;;;;23.50;9.52;;;;;;;;;;4973646;28;20042;-79
2023/02/15 06:29:40;;;;;;;21.65;9.73;;;;;;;;;;4981982;28;20042;-71
2023/02/15 06:32:08;;;;;;;21.63;9.40;;;;;;;;;;4978671;28;20046;-79
2023/02/15 06:34:35;;;;;;;22.33;10.27;;;;;;;;;;4925583;28;20057;-70
2023/02/15 06:37:01;;;;;;;21.58;9.25;;;;;;;;;;4987765;28;20062;-77
2023/02/15 06:39:30;;;;;;;;;;;;;;;;;;4972854;28;20058;-67
2023/02/15 06:41:58;;;;;;;19.48;8.32;;;;;;;;;;4947182;28;19942;-76
2023/02/15 06:44:44;;;;;;;22.38;8.20;;;;;;;;;;4958077;28;20064;-77
2023/02/15 06:47:15;;;;;;;21.42;9.25;;;;;;;;;;4954530;28;20061;-78
2023/02/15 06:49:47;;;;;;;28.70;9.35;;;;;;;;;;4989358;28;20065;-75
2023/02/15 06:52:16;;;;;;;27.10;9.00;;;;;;;;;;4971550;28;20050;-70
2023/02/15 06:54:42;;;;;;;;;;;;;;;;;;4958871;28;20069;-74
2023/02/15 06:57:10;;;;;;;20.88;8.63;;;;;;;;;;4971727;28;19925;-72
2023/02/15 06:59:40;;;;;;;22.33;9.23;;;;;;;;;;4931787;28;20059;-75
2023/02/15 07:02:07;;;;;;;20.67;9.88;;;;;;;;;;4908574;28;20162;-72
2023/02/15 07:04:39;;;;;;;24.73;8.93;;;;;;;;;;4807972;29;696646;-74
2023/02/15 07:15:05;;;;;;;20.95;9.20;;;;;;;;;;4834854;29;20057;-78
2023/02/15 07:17:39;;;;;;;20.13;9.07;;;;;;;;;;4861120;29;20180;-77
2023/02/15 07:20:21;;;;;;;21.63;8.63;;;;;;;;;;4890718;28;20051;-81
2023/02/15 07:22:50;;;;;;;23.27;10.10;;;;;;;;;;4865404;29;21137;-72
2023/02/15 07:25:17;;;;;;;;;;;;;;;;;;4867192;28;20527;-83
2023/02/15 07:27:45;;;;;;;20.77;9.00;;;;;;;;;;4931506;28;20000;-75
2023/02/15 07:30:14;;;;;;;24.30;9.65;;;;;;;;;;4975811;28;20046;-73
2023/02/15 07:33:22;;;;;;;22.80;9.50;;;;;;;;;;4942170;28;20474;-76
2023/02/15 07:35:32;;;;;;;23.55;9.80;;;;;;;;;;4944307;28;20067;-75
2023/02/15 07:38:00;;;;;;;23.85;9.43;;;;;;;;;;4972090;28;20045;-70
2023/02/15 07:40:29;;;;;;;23.73;10.52;;;;;;;;;;4980676;28;20050;-78
2023/02/15 07:42:58;;;;;;;22.50;8.85;;;;;;;;;;4952166;28;20057;-80
2023/02/15 07:50:59;;;;;;;26.55;9.05;;;;;;;;;;5011647;27;20475;-84
2023/02/15 07:53:31;;;;;;;24.63;10.43;;;;;;;;;;4993341;28;20053;-75
2023/02/15 07:58:58;;;;;;;26.52;10.38;;;;;;;;;;4988619;27;20462;-69
2023/02/15 08:01:25;;;;;;;23.13;9.38;;;;;;;;;;4977561;28;20057;-71
2023/02/15 08:03:56;;;;;;;27.42;10.38;;;;;;;;;;4957175;28;20061;-73
2023/02/15 08:06:25;;;;;;;24.25;10.55;;;;;;;;;;4892230;28;20142;-72
2023/02/15 08:08:56;;;;;;;28.98;11.18;;;;;;;;;;4959654;28;20054;-68
2023/02/15 08:11:36;;;;;;;27.67;10.77;;;;;;;;;;4959546;28;20072;-70
2023/02/15 08:14:05;;;;;;;26.52;11.52;;;;;;;;;;4948893;28;20136;-67
2023/02/15 08:16:34;;;;;;;22.33;9.90;;;;;;;;;;4947720;28;20082;-72
2023/02/15 08:19:07;;;;;;;28.13;11.02;;;;;;;;;;4962676;28;20214;-73
2023/02/15 08:21:37;;;;;;;24.17;11.07;;;;;;;;;;4983081;28;20088;-70
2023/02/15 08:24:10;;;;;;;31.58;11.27;;;;;;;;;;4952144;28;20046;-71
2023/02/15 08:26:44;;;;;;;26.40;11.70;;;;;;;;;;4937244;28;20050;-68
2023/02/15 08:29:21;;;;;;;27.23;10.35;;;;;;;;;;4928029;28;20062;-71
2023/02/15 08:31:54;;;;;;;28.13;12.15;;;;;;;;;;4925488;28;20046;-70
2023/02/15 08:34:23;;;;;;;26.48;11.15;;;;;;;;;;4943935;28;20046;-70
2023/02/15 08:36:52;;;;;;;30.88;12.35;;;;;;;;;;4923822;28;20054;-71
2023/02/15 08:39:32;;;;;;;28.77;11.05;;;;;;;;;;4936780;28;20142;-67
2023/02/15 08:42:01;;;;;;;27.02;11.02;;;;;;;;;;4935150;28;20340;-72
2023/02/15 08:44:31;;;;;;;31.75;12.00;;;;;;;;;;4923298;28;20050;-66
2023/02/15 08:47:03;;;;;;;26.67;10.88;;;;;;;;;;4972846;28;20139;-67
2023/02/15 08:49:33;;;;;;;27.95;12.40;;;;;;;;;;4945133;28;20051;-71
2023/02/15 08:52:12;;;;;;;;;;;;;;;;;;4970235;28;20077;-65
2023/02/15 08:54:39;;;;;;;27.40;11.52;;;;;;;;;;4930747;28;20049;-74
2023/02/15 08:57:10;;;;;;;26.88;10.85;;;;;;;;;;4939844;28;20058;-70
2023/02/15 08:59:41;;;;;;;34.67;11.90;;;;;;;;;;4883213;28;20059;-74
2023/02/15 09:07:19;;;;;;;30.75;12.40;;;;;;;;;;4971042;27;20400;-73
2023/02/15 09:09:50;;;;;;;25.75;11.50;;;;;;;;;;4991148;28;20060;-69
2023/02/15 09:12:19;;;;;;;31.25;11.57;;;;;;;;;;5029437;28;20060;-70
2023/02/15 09:14:48;;;;;;;30.52;12.48;;;;;;;;;;5000452;28;20075;-72
2023/02/15 09:17:15;;;;;;;31.05;12.68;;;;;;;;;;5030275;28;20124;-70
2023/02/15 09:19:47;;;;;;;27.85;11.55;;;;;;;;;;5025857;28;20093;-74
2023/02/15 09:22:14;;;;;;;29.40;11.90;;;;;;;;;;4989617;28;20053;-73
2023/02/15 09:24:47;;;;;;;31.15;12.05;;;;;;;;;;4995534;28;20063;-70
2023/02/15 09:27:13;;;;;;;31.38;11.50;;;;;;;;;;5036143;28;20125;-67
2023/02/15 09:29:43;;;;;;;33.03;12.35;;;;;;;;;;5046094;28;20060;-72
2023/02/15 09:32:17;;;;;;;33.38;12.40;;;;;;;;;;4994244;28;20060;-74
2023/02/15 09:34:46;;;;;;;27.25;11.02;;;;;;;;;;5006155;28;20048;-73
2023/02/15 09:37:15;;;;;;;31.15;11.73;;;;;;;;;;5030461;28;20060;-70
2023/02/15 09:39:48;;;;;;;34.42;12.55;;;;;;;;;;5016349;28;20131;-73
2023/02/15 09:42:27;;;;;;;26.42;11.20;;;;;;;;;;5007418;28;20057;-70
2023/02/15 09:45:00;;;;;;;31.52;11.63;;;;;;;;;;4935905;28;20045;-68
2023/02/15 09:47:44;;;;;;;33.13;11.77;;;;;;;;;;4982142;28;20061;-68
2023/02/15 09:50:14;;;;;;;27.00;10.63;;;;;;;;;;4963014;28;20093;-73
2023/02/15 09:52:56;;;;;;;28.35;11.73;;;;;;;;;;4921030;28;20053;-65
2023/02/15 09:55:32;;;;;;;31.08;12.20;;;;;;;;;;4942692;28;20054;-70
2023/02/15 09:58:09;;;;;;;31.40;12.85;;;;;;;;;;4969883;28;20348;-74
2023/02/15 10:00:41;;;;;;;28.02;11.85;;;;;;;;;;4942374;28;20078;-71
2023/02/15 10:03:21;;;;;;;29.17;11.95;;;;;;;;;;4920515;28;20077;-71
2023/02/15 10:08:44;;;;;;;32.20;13.02;;;;;;;;;;4921469;28;20064;-77
2023/02/15 10:11:43;;;;;;;32.30;12.13;;;;;;;;;;4974337;28;20053;-69
2023/02/15 10:14:16;;;;;;;27.08;11.73;;;;;;;;;;5013818;28;20053;-73
2023/02/15 10:16:57;;;;;;;29.02;12.05;;;;;;;;;;4930375;28;20141;-70
2023/02/15 10:19:49;;;;;;;28.08;11.63;;;;;;;;;;5033170;28;20053;-77
2023/02/15 10:22:49;;;;;;;26.95;11.70;;;;;;;;;;5001218;28;20057;-78
2023/02/15 10:25:25;;;;;;;31.83;12.50;;;;;;;;;;4951735;28;20393;-72
2023/02/15 10:28:06;;;;;;;30.02;12.77;;;;;;;;;;4955610;28;20053;-72
2023/02/15 10:30:44;;;;;;;27.95;13.07;;;;;;;;;;4954530;28;20053;-69
2023/02/15 10:33:31;;;;;;;;;;;;;;;;;;;;;
2023/02/15 10:38:53;;;;;;;35.45;13.02;;;;;;;;;;5029889;28;20421;-75
2023/02/15 10:41:40;;;;;;;;;;;;;;;;;;;;;
2023/02/15 10:44:25;;;;;;;34.22;12.45;;;;;;;;;;4867795;28;20063;-78
2023/02/15 10:49:48;;;;;;;33.03;13.07;;;;;;;;;;4842536;29;20066;-69
2023/02/15 10:52:24;;;;;;;27.27;11.88;;;;;;;;;;4867596;29;20092;-73
2023/02/15 11:00:28;;;;;;;32.65;12.13;;;;;;;;;;4956024;28;20481;-68
2023/02/15 11:06:03;;;;;;;33.95;11.68;;;;;;;;;;5004947;27;20441;-73
2023/02/15 11:08:35;;;;;;;34.03;13.88;;;;;;;;;;4960643;28;20050;-77
2023/02/15 11:11:15;;;;;;;31.63;12.32;;;;;;;;;;4960555;28;20053;-74
2023/02/15 11:13:49;;;;;;;33.67;13.85;;;;;;;;;;4934399;28;20054;-70
2023/02/15 11:21:36;;;;;;;35.45;13.80;;;;;;;;;;5016392;27;20427;-76
2023/02/15 11:24:10;;;;;;;36.58;13.98;;;;;;;;;;4985659;28;20053;-76
2023/02/15 11:31:59;;;;;;;33.05;13.70;;;;;;;;;;4982594;28;20142;-70
2023/02/15 11:34:32;;;;;;;33.58;13.57;;;;;;;;;;4909403;28;20073;-74
2023/02/15 11:37:05;;;;;;;35.65;14.35;;;;;;;;;;4920658;28;20053;-71
2023/02/15 11:39:32;;;;;;;32.65;13.77;;;;;;;;;;4937603;28;20150;-69
2023/02/15 11:42:01;;;;;;;31.45;14.02;;;;;;;;;;4914805;28;20056;-78
2023/02/15 11:44:33;;;;;;;36.15;15.35;;;;;;;;;;4925086;28;20061;-80
2023/02/15 11:47:01;;;;;;;42.50;15.40;;;;;;;;;;4926565;28;20049;-73
2023/02/15 11:49:47;;;;;;;37.95;15.27;;;;;;;;;;4959410;28;20054;-77
2023/02/15 11:52:16;;;;;;;38.17;15.88;;;;;;;;;;4984478;28;20054;-84
2023/02/15 11:54:51;;;;;;;35.15;15.07;;;;;;;;;;4975163;28;20114;-74
2023/02/15 11:57:20;;;;;;;37.58;13.85;;;;;;;;;;4949793;28;20144;-81
2023/02/15 11:59:48;;;;;;;35.20;15.75;;;;;;;;;;4937150;28;20055;-69
2023/02/15 12:02:19;;;;;;;34.85;15.45;;;;;;;;;;5010830;28;20072;-69
2023/02/15 12:04:49;;;;;;;34.60;14.85;;;;;;;;;;4984388;28;20049;-68
2023/02/15 12:07:22;;;;;;;35.55;14.02;;;;;;;;;;4987715;28;20125;-81
2023/02/15 12:09:54;;;;;;;40.10;16.25;;;;;;;;;;4998103;28;20049;-73
2023/02/15 12:12:23;;;;;;;34.55;15.43;;;;;;;;;;4986360;28;20069;-83
2023/02/15 12:14:54;;;;;;;41.63;15.77;;;;;;;;;;5010033;28;20073;-79
2023/02/15 12:17:22;;;;;;;36.67;15.80;;;;;;;;;;4962297;28;20235;-77
2023/02/15 12:19:52;;;;;;;38.55;15.77;;;;;;;;;;4938797;28;20050;-78
2023/02/15 12:22:25;;;;;;;35.10;15.77;;;;;;;;;;4886743;28;20064;-73
2023/02/15 12:25:05;;;;;;;33.00;15.32;;;;;;;;;;4911456;28;20061;-85
2023/02/15 12:27:33;;;;;;;41.53;16.17;;;;;;;;;;4922067;28;20155;-81
2023/02/15 12:30:02;;;;;;;40.25;15.20;;;;;;;;;;4952590;28;20074;-73
2023/02/15 12:32:36;;;;;;;37.30;14.35;;;;;;;;;;4929420;28;20062;-76
2023/02/15 12:35:10;;;;;;;34.90;15.05;;;;;;;;;;4997318;28;20060;-76
2023/02/15 12:37:39;;;;;;;37.17;15.05;;;;;;;;;;4949334;28;20257;-79
2023/02/15 12:40:19;;;;;;;44.63;16.08;;;;;;;;;;4951282;28;20168;-77
2023/02/15 12:42:48;;;;;;;36.75;15.68;;;;;;;;;;4921894;28;20054;-74
2023/02/15 12:45:23;;;;;;;37.90;16.63;;;;;;;;;;4944045;28;20156;-71
2023/02/15 12:48:12;;;;;;;34.78;15.77;;;;;;;;;;4911484;28;20106;-68
2023/02/15 12:50:46;;;;;;;39.35;16.23;;;;;;;;;;4965704;28;20137;-81
2023/02/15 12:53:19;;;;;;;40.15;16.15;;;;;;;;;;4927775;28;20058;-78
2023/02/15 12:55:56;;;;;;;38.55;16.05;;;;;;;;;;4998372;28;20613;-74
2023/02/15 12:58:25;;;;;;;35.50;15.50;;;;;;;;;;4986770;28;20114;-75
2023/02/15 13:00:51;;;;;;;;;;;;;;;;;;5036776;28;20057;-74
2023/02/15 13:03:23;;;;;;;34.40;14.32;;;;;;;;;;4990571;28;19933;-77
2023/02/15 13:05:53;;;;;;;40.97;15.43;;;;;;;;;;4965179;28;20111;-74
2023/02/15 13:08:48;;;;;;;35.45;14.45;;;;;;;;;;4959808;28;20057;-78
2023/02/15 13:11:21;;;;;;;39.05;16.35;;;;;;;;;;5018736;28;20129;-84
2023/02/15 13:13:56;;;;;;;38.13;15.48;;;;;;;;;;4977239;28;20061;-79
2023/02/15 13:16:30;;;;;;;38.22;16.50;;;;;;;;;;4953864;28;20076;-73
2023/02/15 13:18:58;;;;;;;39.20;16.63;;;;;;;;;;4963186;28;20146;-75
2023/02/15 13:21:25;;;;;;;38.85;15.82;;;;;;;;;;4964737;28;20069;-75
2023/02/15 13:23:58;;;;;;;34.78;15.15;;;;;;;;;;4985735;28;20057;-74
2023/02/15 13:26:36;;;;;;;37.50;16.10;;;;;;;;;;4964222;28;20062;-67
2023/02/15 13:34:01;;;;;;;42.20;17.17;;;;;;;;;;4871952;28;20306;-74
2023/02/15 13:36:31;;;;;;;38.67;16.63;;;;;;;;;;4957662;28;20152;-74
2023/02/15 13:41:51;;;;;;;37.67;16.27;;;;;;;;;;5034597;27;20454;-72
2023/02/15 13:44:45;;;;;;;37.97;16.02;;;;;;;;;;5034054;28;20391;-79
2023/02/15 13:47:16;;;;;;;39.47;16.30;;;;;;;;;;4958060;28;20140;-78
2023/02/15 13:49:49;;;;;;;41.47;17.08;;;;;;;;;;4923656;28;20050;-71
2023/02/15 13:52:21;;;;;;;38.55;16.83;;;;;;;;;;4976907;28;20061;-79
2023/02/15 13:55:12;;;;;;;37.15;16.38;;;;;;;;;;4972804;28;20057;-73
2023/02/15 13:57:51;;;;;;;39.47;16.77;;;;;;;;;;4931494;28;20215;-79
2023/02/15 14:00:23;;;;;;;35.00;16.08;;;;;;;;;;4990100;28;20124;-75
2023/02/15 14:03:10;;;;;;;40.30;17.48;;;;;;;;;;4987707;28;20057;-80
2023/02/15 14:05:52;;;;;;;39.53;16.30;;;;;;;;;;4995912;28;20119;-73
2023/02/15 14:08:28;;;;;;;40.92;16.50;;;;;;;;;;4991256;28;20051;-65
2023/02/15 14:11:00;;;;;;;37.97;15.63;;;;;;;;;;5016271;28;20053;-74
2023/02/15 14:13:44;;;;;;;43.22;17.70;;;;;;;;;;4996449;28;20048;-81
2023/02/15 14:16:14;;;;;;;37.40;15.88;;;;;;;;;;4968077;28;20057;-73
2023/02/15 14:18:43;;;;;;;48.90;18.23;;;;;;;;;;4934164;28;20054;-70
2023/02/15 14:21:17;;;;;;;42.95;17.33;;;;;;;;;;4996835;28;20145;-79
2023/02/15 14:23:55;;;;;;;40.30;17.00;;;;;;;;;;4983588;28;20053;-71
2023/02/15 14:26:31;;;;;;;40.53;17.20;;;;;;;;;;4993768;28;20118;-74
2023/02/15 14:29:00;;;;;;;;;;;;;;;;;;4967794;28;20189;-76
2023/02/15 14:31:29;;;;;;;;;;;;;;;;;;4970978;28;19936;-69
2023/02/15 14:33:58;;;;;;;34.85;15.18;;;;;;;;;;4999417;28;19952;-74
2023/02/15 14:36:29;;;;;;;42.10;17.25;;;;;;;;;;4977302;28;20049;-74
2023/02/15 14:39:02;;;;;;;43.65;17.02;;;;;;;;;;4994893;28;20081;-68
2023/02/15 14:41:30;;;;;;;42.45;18.15;;;;;;;;;;5003121;28;20057;-84
2023/02/15 14:44:03;;;;;;;36.22;16.45;;;;;;;;;;4990949;28;20278;-70
2023/02/15 14:46:33;;;;;;;43.10;16.83;;;;;;;;;;4990215;28;20081;-77
2023/02/15 14:49:10;;;;;;;37.55;16.60;;;;;;;;;;4974856;28;20061;-77
2023/02/15 14:51:59;;;;;;;39.67;16.33;;;;;;;;;;4925557;28;20118;-75
2023/02/15 14:54:44;;;;;;;41.42;16.48;;;;;;;;;;4966083;28;20061;-81
2023/02/15 14:57:27;;;;;;;38.63;16.75;;;;;;;;;;4951339;28;20069;-71
2023/02/15 15:00:01;;;;;;;37.03;15.63;;;;;;;;;;4942393;28;20064;-78
2023/02/15 15:02:45;;;;;;;37.92;16.35;;;;;;;;;;4950628;28;20147;-80
2023/02/15 15:05:18;;;;;;;37.65;16.45;;;;;;;;;;4949397;28;20050;-75
2023/02/15 15:07:46;;;;;;;43.38;17.25;;;;;;;;;;4961534;28;20060;-70
2023/02/15 15:10:31;;;;;;;39.20;16.45;;;;;;;;;;4925214;28;20054;-73
2023/02/15 15:12:58;;;;;;;42.83;16.30;;;;;;;;;;4962330;28;20054;-69
2023/02/15 15:15:36;;;;;;;42.45;17.80;;;;;;;;;;4975066;28;20060;-70
2023/02/15 15:18:06;;;;;;;37.15;16.58;;;;;;;;;;4949027;28;20057;-79
2023/02/15 15:20:47;;;;;;;39.65;16.92;;;;;;;;;;4974940;28;20071;-75
2023/02/15 15:23:35;;;;;;;35.03;15.63;;;;;;;;;;4954487;28;20400;-70
2023/02/15 15:26:22;;;;;;;44.75;17.40;;;;;;;;;;4993704;28;20053;-73
2023/02/15 15:28:56;;;;;;;37.78;16.30;;;;;;;;;;4940471;28;20055;-71
2023/02/15 15:31:46;;;;;;;35.83;15.38;;;;;;;;;;4945012;28;20054;-68
2023/02/15 15:42:31;;;;;;;34.55;15.38;;;;;;;;;;4877751;29;20055;-82
2023/02/15 15:45:09;;;;;;;36.53;16.52;;;;;;;;;;4906987;28;20054;-75
2023/02/15 15:47:43;;;;;;;37.25;16.33;;;;;;;;;;4957988;28;20061;-76
2023/02/15 15:50:16;;;;;;;42.50;17.08;;;;;;;;;;4905852;28;20055;-76
2023/02/15 15:52:46;;;;;;;34.85;16.20;;;;;;;;;;4886734;28;20050;-76
2023/02/15 15:55:30;;;;;;;33.63;15.57;;;;;;;;;;4933122;28;20086;-74
2023/02/15 15:58:09;;;;;;;37.10;15.73;;;;;;;;;;4910518;28;20465;-74
2023/02/15 16:00:38;;;;;;;36.42;15.27;;;;;;;;;;4900741;28;20067;-71
2023/02/15 16:03:09;;;;;;;37.70;16.60;;;;;;;;;;4899111;28;20059;-71
2023/02/15 16:05:40;;;;;;;35.20;15.23;;;;;;;;;;4952443;28;20065;-71
2023/02/15 16:08:09;;;;;;;40.67;17.25;;;;;;;;;;4932901;28;20086;-75
2023/02/15 16:10:38;;;;;;;38.42;16.58;;;;;;;;;;4930769;28;20054;-77
2023/02/15 16:13:07;;;;;;;35.13;15.77;;;;;;;;;;4945185;28;20061;-71
2023/02/15 16:15:54;;;;;;;40.58;16.60;;;;;;;;;;4947922;28;20079;-77
2023/02/15 16:18:21;;;;;;;32.20;15.15;;;;;;;;;;4960234;28;20058;-66
2023/02/15 16:20:58;;;;;;;33.97;16.17;;;;;;;;;;4923053;28;20082;-72
2023/02/15 16:23:38;;;;;;;35.65;15.82;;;;;;;;;;4935773;28;20117;-75
2023/02/15 16:26:38;;;;;;;37.80;16.13;;;;;;;;;;4878573;28;20068;-73
2023/02/15 16:29:15;;;;;;;37.70;15.60;;;;;;;;;;4882803;28;20227;-81